createdAt,value
2023-02-02T00:01:50.910Z,101796.50
2023-02-02T00:04:20.103Z,101794.63
2023-02-02T00:06:47.253Z,101796.31
2023-02-02T00:09:17.398Z,101792.78
2023-02-02T00:11:45.222Z,101789.25
2023-02-02T00:14:12.758Z,101790.09
2023-02-02T00:16:42.159Z,101785.59
2023-02-02T00:19:12.800Z,101783.78
2023-02-02T00:21:39.831Z,101777.66
2023-02-02T00:24:07.200Z,101774.22
2023-02-02T00:26:34.071Z,101777.66
2023-02-02T00:29:00.701Z,101770.50
2023-02-02T00:31:27.271Z,101776.53
2023-02-02T00:33:53.875Z,101774.69
2023-02-02T00:36:22.249Z,101790.78
2023-02-02T00:38:49.816Z,101780.06
2023-02-02T00:41:17.148Z,101793.16
2023-02-02T00:43:43.773Z,101790.59
2023-02-02T00:46:14.427Z,101796.34
2023-02-02T00:48:40.904Z,101784.88
2023-02-02T00:51:07.636Z,101783.22
2023-02-02T00:53:35.595Z,101779.88
2023-02-02T00:56:02.102Z,101786.28
2023-02-02T00:58:28.614Z,101779.09
2023-02-02T01:00:55.178Z,101771.84
2023-02-02T01:03:21.669Z,101766.59
2023-02-02T01:05:48.211Z,101777.88
2023-02-02T01:08:14.711Z,101783.53
2023-02-02T01:10:42.505Z,101785.34
2023-02-02T01:13:09.068Z,101789.81
2023-02-02T01:15:37.028Z,101795.19
2023-02-02T01:18:03.730Z,101788.97
2023-02-02T01:20:30.207Z,101788.97
2023-02-02T01:22:56.805Z,101788.78
2023-02-02T01:25:23.649Z,101788.03
2023-02-02T01:27:51.608Z,101792.72
2023-02-02T01:30:18.354Z,101783.59
2023-02-02T01:32:44.876Z,101790.97
2023-02-02T01:35:11.407Z,101789.81
2023-02-02T01:37:38.894Z,101779.88
2023-02-02T01:40:06.692Z,101781.88
2023-02-02T01:42:33.243Z,101781.88
2023-02-02T01:45:14.539Z,101777.97
2023-02-02T01:47:46.045Z,101779.09
2023-02-02T01:50:15.529Z,101794.63
2023-02-02T01:52:45.121Z,101806.88
2023-02-02T01:55:14.398Z,101809.53
2023-02-02T01:57:44.243Z,101812.16
2023-02-02T02:00:16.740Z,101817.69
2023-02-02T02:02:46.313Z,101816.06
2023-02-02T02:05:18.726Z,101818.63
2023-02-02T02:07:47.944Z,101813.75
2023-02-02T02:10:15.836Z,101820.56
2023-02-02T02:12:42.420Z,101824.88
2023-02-02T02:15:11.844Z,101815.28
2023-02-02T02:17:55.100Z,101813.44
2023-02-02T02:20:40.869Z,101804.66
2023-02-02T02:23:30.865Z,101799.00
2023-02-02T02:26:17.563Z,101796.25
2023-02-02T02:29:03.364Z,101802.66
2023-02-02T02:31:52.805Z,101804.66
2023-02-02T02:34:26.501Z,101805.50
2023-02-02T02:37:03.395Z,101798.44
2023-02-02T02:39:35.756Z,101798.81
2023-02-02T02:42:15.465Z,101792.13
2023-02-02T02:44:42.125Z,101781.88
2023-02-02T02:47:11.209Z,101775.91
2023-02-02T02:49:42.371Z,101778.91
2023-02-02T02:52:09.565Z,101771.03
2023-02-02T02:54:40.541Z,101778.91
2023-02-02T02:57:21.607Z,101785.97
2023-02-02T02:59:56.759Z,101798.44
2023-02-02T03:02:36.123Z,101788.56
2023-02-02T03:05:14.459Z,101785.78
2023-02-02T03:07:44.641Z,101793.66
2023-02-02T03:10:14.693Z,101790.72
2023-02-02T03:12:45.892Z,101793.66
2023-02-02T03:15:13.261Z,101786.97
2023-02-02T03:17:42.489Z,101792.34
2023-02-02T03:20:10.334Z,101792.28
2023-02-02T03:22:36.818Z,101800.13
2023-02-02T03:25:03.899Z,101795.41
2023-02-02T03:27:30.646Z,101797.91
2023-02-02T03:29:58.556Z,101791.72
2023-02-02T03:32:25.409Z,101789.22
2023-02-02T03:34:53.203Z,101804.22
2023-02-02T03:37:19.813Z,101804.66
2023-02-02T03:39:46.385Z,101807.59
2023-02-02T03:42:13.024Z,101801.88
2023-02-02T03:44:39.516Z,101797.81
2023-02-02T03:47:06.036Z,101796.66
2023-02-02T03:49:32.596Z,101795.59
2023-02-02T03:52:00.463Z,101789.19
2023-02-02T03:54:26.997Z,101789.81
2023-02-02T03:56:53.500Z,101795.88
2023-02-02T03:59:20.145Z,101804.38
2023-02-02T04:01:46.658Z,101800.75
2023-02-02T04:04:13.318Z,101802.06
2023-02-02T04:06:39.819Z,101813.81
2023-02-02T04:09:07.714Z,101812.09
2023-02-02T04:11:34.220Z,101812.69
2023-02-02T04:14:00.797Z,101802.41
2023-02-02T04:16:27.348Z,101794.28
2023-02-02T04:18:53.898Z,101780.19
2023-02-02T04:21:20.509Z,101786.22
2023-02-02T04:23:46.968Z,101778.22
2023-02-02T04:26:15.868Z,101783.84
2023-02-02T04:28:42.542Z,101780.63
2023-02-02T04:31:09.271Z,101791.50
2023-02-02T04:33:35.830Z,101797.69
2023-02-02T04:36:02.456Z,101795.78
2023-02-02T04:38:28.997Z,101802.91
2023-02-02T04:40:55.555Z,101803.69
2023-02-02T04:43:23.366Z,101787.56
2023-02-02T04:45:55.239Z,101797.63
2023-02-02T04:48:21.779Z,101788.28
2023-02-02T04:50:48.271Z,101785.81
2023-02-02T04:53:14.907Z,101784.84
2023-02-02T04:55:41.504Z,101773.56
2023-02-02T04:58:08.044Z,101779.56
2023-02-02T05:00:35.875Z,101787.00
2023-02-02T05:03:02.511Z,101792.94
2023-02-02T05:05:29.069Z,101797.13
2023-02-02T05:07:55.581Z,101787.13
2023-02-02T05:10:22.119Z,101787.56
2023-02-02T05:12:48.689Z,101798.09
2023-02-02T05:15:15.251Z,101799.50
2023-02-02T05:17:43.101Z,101807.09
2023-02-02T05:20:10.534Z,101804.88
2023-02-02T05:22:37.033Z,101808.94
2023-02-02T05:25:04.144Z,101811.75
2023-02-02T05:27:30.632Z,101810.03
2023-02-02T05:29:57.139Z,101817.78
2023-02-02T05:32:23.692Z,101824.34
2023-02-02T05:34:51.650Z,101827.59
2023-02-02T05:37:18.153Z,101817.56
2023-02-02T05:39:44.676Z,101818.75
2023-02-02T05:42:11.195Z,101821.56
2023-02-02T05:44:37.673Z,101809.63
2023-02-02T05:47:04.329Z,101818.88
2023-02-02T05:49:30.837Z,101814.16
2023-02-02T05:51:58.944Z,101818.97
2023-02-02T05:54:25.543Z,101814.66
2023-02-02T05:56:53.434Z,101818.00
2023-02-02T05:59:19.954Z,101821.03
2023-02-02T06:01:47.133Z,101827.31
2023-02-02T06:04:14.631Z,101836.19
2023-02-02T06:06:42.020Z,101836.63
2023-02-02T06:09:10.641Z,101842.22
2023-02-02T06:11:37.179Z,101839.56
2023-02-02T06:14:03.751Z,101836.75
2023-02-02T06:16:30.285Z,101833.59
2023-02-02T06:18:57.075Z,101837.59
2023-02-02T06:21:23.688Z,101840.78
2023-02-02T06:23:50.509Z,101843.81
2023-02-02T06:26:19.109Z,101849.34
2023-02-02T06:28:50.124Z,101855.44
2023-02-02T06:31:18.777Z,101860.06
2023-02-02T06:33:45.349Z,101860.38
2023-02-02T06:36:12.259Z,101861.69
2023-02-02T06:38:39.242Z,101849.03
2023-02-02T06:41:05.803Z,101855.00
2023-02-02T06:43:33.685Z,101853.81
2023-02-02T06:46:00.257Z,101854.53
2023-02-02T06:48:27.277Z,101851.03
2023-02-02T06:50:53.809Z,101850.75
2023-02-02T06:53:20.348Z,101855.84
2023-02-02T06:55:52.819Z,101851.72
2023-02-02T06:58:19.331Z,101853.09
2023-02-02T07:00:47.376Z,101855.78
2023-02-02T07:03:14.275Z,101847.31
2023-02-02T07:05:40.831Z,101853.88
2023-02-02T07:08:07.464Z,101850.00
2023-02-02T07:11:14.638Z,101850.97
2023-02-02T07:13:20.619Z,101854.16
2023-02-02T07:15:48.575Z,101853.25
2023-02-02T07:18:15.178Z,101856.31
2023-02-02T07:20:41.799Z,101858.59
2023-02-02T07:23:08.347Z,101857.97
2023-02-02T07:25:34.893Z,101860.91
2023-02-02T07:28:01.589Z,101859.34
2023-02-02T07:30:28.219Z,101860.06
2023-02-02T07:32:56.265Z,101857.53
2023-02-02T07:35:23.243Z,101865.06
2023-02-02T07:37:51.978Z,101865.25
2023-02-02T07:40:18.777Z,101879.00
2023-02-02T07:42:46.554Z,101875.97
2023-02-02T07:45:27.468Z,101871.06
2023-02-02T07:47:57.928Z,101884.06
2023-02-02T07:50:24.509Z,101878.41
2023-02-02T07:52:51.321Z,101878.47
2023-02-02T07:55:18.317Z,101880.19
2023-02-02T07:57:45.156Z,101887.19
2023-02-02T08:00:16.499Z,101887.31
2023-02-02T08:05:36.287Z,101897.81
2023-02-02T08:08:17.903Z,101901.84
2023-02-02T08:10:49.754Z,101906.72
2023-02-02T08:13:16.281Z,101906.88
2023-02-02T08:15:42.830Z,101904.75
2023-02-02T08:18:09.336Z,101908.38
2023-02-02T08:20:37.182Z,101915.78
2023-02-02T08:23:03.844Z,101911.16
2023-02-02T08:25:30.358Z,101914.91
2023-02-02T08:27:57.211Z,101919.69
2023-02-02T08:30:23.848Z,101925.72
2023-02-02T08:32:50.669Z,101934.06
2023-02-02T08:35:17.202Z,101937.25
2023-02-02T08:37:47.734Z,101936.28
2023-02-02T08:40:14.907Z,101935.91
2023-02-02T08:42:41.721Z,101940.97
2023-02-02T08:46:01.351Z,101947.69
2023-02-02T08:48:09.534Z,101951.25
2023-02-02T08:50:37.898Z,101946.31
2023-02-02T08:53:06.280Z,101947.63
2023-02-02T08:55:33.550Z,101946.03
2023-02-02T08:58:00.340Z,101949.53
2023-02-02T09:00:27.161Z,101951.06
2023-02-02T09:02:53.824Z,101949.22
2023-02-02T09:05:20.433Z,101955.38
2023-02-02T09:07:47.510Z,101958.81
2023-02-02T09:10:16.252Z,101958.72
2023-02-02T09:12:42.893Z,101976.28
2023-02-02T09:15:10.106Z,101967.97
2023-02-02T09:17:36.624Z,101978.00
2023-02-02T09:20:03.586Z,101973.56
2023-02-02T09:22:30.461Z,101982.09
2023-02-02T09:24:57.085Z,101995.28
2023-02-02T09:27:24.951Z,101996.28
2023-02-02T09:29:51.612Z,102007.53
2023-02-02T09:32:18.185Z,102006.00
2023-02-02T09:34:44.906Z,102004.72
2023-02-02T09:37:11.445Z,102014.31
2023-02-02T09:39:37.976Z,102011.88
2023-02-02T09:42:29.414Z,102022.84
2023-02-02T09:45:01.664Z,102022.00
2023-02-02T09:47:41.559Z,102013.78
2023-02-02T09:50:18.286Z,102028.44
2023-02-02T09:52:49.589Z,102024.09
2023-02-02T09:55:22.271Z,102026.47
2023-02-02T09:57:54.187Z,102039.59
2023-02-02T10:00:29.520Z,102046.09
2023-02-02T10:03:01.317Z,102039.38
2023-02-02T10:05:35.545Z,102038.13
2023-02-02T10:08:05.671Z,102032.50
2023-02-02T10:10:35.519Z,102037.47
2023-02-02T10:13:10.225Z,102045.41
2023-02-02T10:15:40.659Z,102041.13
2023-02-02T10:18:16.278Z,102036.72
2023-02-02T10:20:47.605Z,102045.88
2023-02-02T10:23:22.539Z,102052.59
2023-02-02T10:25:57.267Z,102037.25
2023-02-02T10:28:41.068Z,102045.00
2023-02-02T10:31:17.924Z,102040.41
2023-02-02T10:33:54.025Z,102045.91
2023-02-02T10:36:28.695Z,102055.75
2023-02-02T10:39:03.089Z,102046.03
2023-02-02T10:41:40.845Z,102058.03
2023-02-02T10:44:22.095Z,102053.94
2023-02-02T10:46:52.168Z,102060.38
2023-02-02T10:49:26.916Z,102070.56
2023-02-02T10:51:57.578Z,102061.25
2023-02-02T10:54:46.610Z,102064.22
2023-02-02T10:57:37.179Z,102066.81
2023-02-02T11:00:15.628Z,102062.09
2023-02-02T11:02:42.242Z,102064.41
2023-02-02T11:05:16.042Z,102053.91
2023-02-02T11:07:42.493Z,102048.41
2023-02-02T11:10:09.670Z,102051.41
2023-02-02T11:12:42.746Z,102050.09
2023-02-02T11:15:25.096Z,102056.91
2023-02-02T11:17:51.679Z,102050.75
2023-02-02T11:20:24.866Z,102050.63
2023-02-02T11:23:01.312Z,102046.28
2023-02-02T11:25:31.406Z,102047.44
2023-02-02T11:27:58.563Z,102042.78
2023-02-02T11:30:33.094Z,102046.41
2023-02-02T11:32:59.829Z,102037.50
2023-02-02T11:35:27.561Z,102038.22
2023-02-02T11:37:58.517Z,102044.75
2023-02-02T11:40:31.505Z,102042.59
2023-02-02T11:43:00.526Z,102037.13
2023-02-02T11:45:32.972Z,102029.50
2023-02-02T11:48:04.087Z,102024.22
2023-02-02T11:50:30.805Z,102028.56
2023-02-02T11:52:58.029Z,102019.38
2023-02-02T11:55:27.913Z,102025.69
2023-02-02T11:58:14.186Z,102016.97
2023-02-02T12:00:48.029Z,102012.47
2023-02-02T12:03:23.047Z,102018.34
2023-02-02T12:05:49.798Z,102015.75
2023-02-02T12:08:16.562Z,102013.75
2023-02-02T12:10:50.848Z,102015.50
2023-02-02T12:13:30.422Z,102016.63
2023-02-02T12:16:11.728Z,102019.22
2023-02-02T12:18:50.933Z,102015.59
2023-02-02T12:21:25.526Z,102004.09
2023-02-02T12:24:05.190Z,102005.84
2023-02-02T12:26:34.227Z,101996.88
2023-02-02T12:29:14.878Z,102002.72
2023-02-02T12:31:53.749Z,102003.13
2023-02-02T12:34:32.437Z,101997.50
2023-02-02T12:37:10.131Z,102003.97
2023-02-02T12:39:49.154Z,101993.28
2023-02-02T12:42:33.872Z,101989.75
2023-02-02T12:45:18.050Z,101986.00
2023-02-02T12:47:56.340Z,101987.34
2023-02-02T12:50:30.327Z,101979.38
2023-02-02T12:53:16.530Z,101986.94
2023-02-02T12:55:47.899Z,101981.91
2023-02-02T12:58:24.671Z,101978.00
2023-02-02T13:01:04.690Z,101971.53
2023-02-02T13:03:45.090Z,101975.16
2023-02-02T13:06:32.854Z,101962.25
2023-02-02T13:09:06.092Z,101963.34
2023-02-02T13:11:38.449Z,101964.44
2023-02-02T13:14:11.189Z,101963.16
2023-02-02T13:16:42.980Z,101964.34
2023-02-02T13:19:17.769Z,101961.00
2023-02-02T13:21:45.183Z,101950.56
2023-02-02T13:24:19.279Z,101958.03
2023-02-02T13:26:48.543Z,101955.72
2023-02-02T13:29:24.702Z,101972.09
2023-02-02T13:31:59.291Z,101973.72
2023-02-02T13:34:37.863Z,101977.16
2023-02-02T13:37:11.117Z,101985.97
2023-02-02T13:39:43.969Z,101980.38
2023-02-02T13:42:27.173Z,101976.50
2023-02-02T13:44:59.103Z,101968.41
2023-02-02T13:47:34.934Z,101970.50
2023-02-02T13:50:07.466Z,101976.19
2023-02-02T13:53:00.530Z,101978.38
2023-02-02T13:55:43.013Z,101969.22
2023-02-02T13:58:35.196Z,101973.00
2023-02-02T14:01:05.936Z,101970.59
2023-02-02T14:03:36.558Z,101964.34
2023-02-02T14:06:09.307Z,101970.16
2023-02-02T14:08:37.220Z,101975.00
2023-02-02T14:11:06.120Z,101975.41
2023-02-02T14:13:46.125Z,101975.53
2023-02-02T14:16:21.173Z,101971.38
2023-02-02T14:18:55.400Z,101966.72
2023-02-02T14:21:42.354Z,101971.44
2023-02-02T14:24:08.632Z,101973.16
2023-02-02T14:26:45.949Z,101974.44
2023-02-02T14:29:32.338Z,101974.78
2023-02-02T14:32:00.392Z,101978.19
2023-02-02T14:34:30.705Z,101984.13
2023-02-02T14:37:14.479Z,101977.53
2023-02-02T14:39:53.957Z,101985.34
2023-02-02T14:42:34.417Z,101986.06
2023-02-02T14:45:27.484Z,101979.38
2023-02-02T14:47:58.496Z,101991.25
2023-02-02T14:50:34.576Z,101995.13
2023-02-02T14:53:04.643Z,101993.16
2023-02-02T14:55:31.407Z,101991.06
2023-02-02T14:58:02.257Z,101996.53
2023-02-02T15:00:31.645Z,101998.81
2023-02-02T15:03:27.858Z,101997.41
2023-02-02T15:06:03.200Z,101999.44
2023-02-02T15:08:29.847Z,101993.31
2023-02-02T15:10:59.871Z,101998.69
2023-02-02T15:13:34.921Z,102002.31
2023-02-02T15:16:14.727Z,102007.31
2023-02-02T15:18:46.470Z,102005.72
2023-02-02T15:21:19.066Z,102006.50
2023-02-02T15:23:47.180Z,102015.81
2023-02-02T15:26:18.433Z,102019.06
2023-02-02T15:28:51.371Z,102009.13
2023-02-02T15:31:25.100Z,102019.81
2023-02-02T15:33:55.537Z,102013.63
2023-02-02T15:36:25.715Z,102008.75
2023-02-02T15:38:54.277Z,102014.50
2023-02-02T15:41:24.247Z,102011.22
2023-02-02T15:43:53.436Z,102013.63
2023-02-02T15:46:23.971Z,102020.25
2023-02-02T15:49:31.396Z,102013.78
2023-02-02T15:52:09.925Z,102015.25
2023-02-02T15:54:36.571Z,102020.47
2023-02-02T15:57:03.734Z,102027.00
2023-02-02T15:59:40.063Z,102024.53
2023-02-02T16:02:23.075Z,102021.28
2023-02-02T16:04:49.718Z,102023.53
2023-02-02T16:07:20.753Z,102025.81
2023-02-02T16:09:47.837Z,102025.56
2023-02-02T16:12:18.107Z,102035.06
2023-02-02T16:14:48.202Z,102038.50
2023-02-02T16:17:21.417Z,102035.41
2023-02-02T16:19:49.972Z,102043.00
2023-02-02T16:22:18.588Z,102042.34
2023-02-02T16:24:49.691Z,102050.28
2023-02-02T16:27:20.133Z,102056.97
2023-02-02T16:29:49.090Z,102048.63
2023-02-02T16:32:26.751Z,102051.78
2023-02-02T16:34:53.245Z,102057.56
2023-02-02T16:37:23.316Z,102051.78
2023-02-02T16:39:49.829Z,102047.44
2023-02-02T16:42:24.400Z,102053.53
2023-02-02T16:44:52.631Z,102055.75
2023-02-02T16:47:34.324Z,102060.78
2023-02-02T16:50:19.072Z,102046.75
2023-02-02T16:52:50.576Z,102051.63
2023-02-02T16:55:19.536Z,102053.09
2023-02-02T16:57:49.061Z,102047.34
2023-02-02T17:00:22.948Z,102052.03
2023-02-02T17:02:55.119Z,102054.97
2023-02-02T17:05:27.023Z,102060.75
2023-02-02T17:07:57.371Z,102061.03
2023-02-02T17:10:26.445Z,102074.00
2023-02-02T17:12:53.318Z,102061.34
2023-02-02T17:15:34.855Z,102066.84
2023-02-02T17:18:03.227Z,102070.38
2023-02-02T17:20:30.614Z,102064.03
2023-02-02T17:23:01.147Z,102074.28
2023-02-02T17:25:31.648Z,102068.16
2023-02-02T17:27:59.979Z,102067.38
2023-02-02T17:30:27.566Z,102064.81
2023-02-02T17:32:55.496Z,102071.59
2023-02-02T17:35:24.249Z,102069.19
2023-02-02T17:37:51.161Z,102069.19
2023-02-02T17:40:19.320Z,102063.81
2023-02-02T17:42:49.134Z,102068.03
2023-02-02T17:45:18.137Z,102075.25
2023-02-02T17:47:44.721Z,102067.72
2023-02-02T17:50:12.870Z,102077.59
2023-02-02T17:52:39.781Z,102066.53
2023-02-02T17:55:13.816Z,102073.72
2023-02-02T17:57:40.357Z,102071.22
2023-02-02T18:00:07.870Z,102081.03
2023-02-02T18:02:35.857Z,102076.78
2023-02-02T18:05:03.310Z,102077.81
2023-02-02T18:07:31.660Z,102082.34
2023-02-02T18:09:58.237Z,102074.72
2023-02-02T18:12:24.889Z,102075.00
2023-02-02T18:14:51.363Z,102080.28
2023-02-02T18:17:17.972Z,102086.00
2023-02-02T18:19:44.489Z,102079.84
2023-02-02T18:22:11.262Z,102080.91
2023-02-02T18:24:39.139Z,102077.34
2023-02-02T18:27:05.843Z,102076.47
2023-02-02T18:29:32.442Z,102075.72
2023-02-02T18:31:59.207Z,102073.88
2023-02-02T18:34:29.566Z,102074.06
2023-02-02T18:36:56.214Z,102072.66
2023-02-02T18:39:22.813Z,102070.84
2023-02-02T18:41:50.609Z,102072.00
2023-02-02T18:44:17.240Z,102069.19
2023-02-02T18:46:43.795Z,102079.81
2023-02-02T18:49:11.188Z,102083.41
2023-02-02T18:51:37.724Z,102078.97
2023-02-02T18:54:04.444Z,102085.50
2023-02-02T18:56:30.960Z,102071.09
2023-02-02T18:58:58.944Z,102088.09
2023-02-02T19:01:25.591Z,102080.97
2023-02-02T19:03:53.567Z,102087.41
2023-02-02T19:06:21.181Z,102077.44
2023-02-02T19:08:47.977Z,102073.03
2023-02-02T19:11:17.025Z,102074.94
2023-02-02T19:13:44.174Z,102072.25
2023-02-02T19:16:19.936Z,102070.63
2023-02-02T19:18:46.535Z,102085.00
2023-02-02T19:21:14.319Z,102083.38
2023-02-02T19:23:42.679Z,102074.34
2023-02-02T19:26:19.832Z,102076.19
2023-02-02T19:28:46.660Z,102078.19
2023-02-02T19:31:15.901Z,102081.63
2023-02-02T19:33:44.839Z,102093.44
2023-02-02T19:36:15.043Z,102090.66
2023-02-02T19:38:41.586Z,102086.25
2023-02-02T19:41:15.281Z,102083.56
2023-02-02T19:43:41.808Z,102081.13
2023-02-02T19:46:17.612Z,102091.88
2023-02-02T19:48:44.277Z,102083.75
2023-02-02T19:51:34.195Z,102077.59
2023-02-02T19:54:01.049Z,102074.03
2023-02-02T19:56:30.446Z,102081.22
2023-02-02T19:58:56.961Z,102078.72
2023-02-02T20:01:29.789Z,102072.50
2023-02-02T20:03:56.299Z,102070.69
2023-02-02T20:06:25.087Z,102064.53
2023-02-02T20:08:52.784Z,102078.84
2023-02-02T20:11:28.975Z,102079.59
2023-02-02T20:13:55.508Z,102077.19
2023-02-02T20:16:24.723Z,102066.53
2023-02-02T20:18:53.618Z,102073.72
2023-02-02T20:21:25.731Z,102073.66
2023-02-02T20:23:52.607Z,102080.91
2023-02-02T20:26:23.726Z,102076.41
2023-02-02T20:28:52.348Z,102077.53
2023-02-02T20:31:22.172Z,102075.03
2023-02-02T20:33:52.558Z,102078.41
2023-02-02T20:36:29.714Z,102068.75
2023-02-02T20:38:58.480Z,102058.94
2023-02-02T20:41:24.998Z,102066.91
2023-02-02T20:43:51.533Z,102063.44
2023-02-02T20:46:18.249Z,102061.72
2023-02-02T20:48:44.875Z,102067.09
2023-02-02T20:51:12.717Z,102064.47
2023-02-02T20:53:39.490Z,102070.75
2023-02-02T20:56:06.487Z,102080.50
2023-02-02T20:58:33.061Z,102089.53
2023-02-02T21:00:59.778Z,102096.69
2023-02-02T21:03:26.345Z,102089.72
2023-02-02T21:05:52.876Z,102085.19
2023-02-02T21:08:20.939Z,102090.63
2023-02-02T21:10:47.446Z,102090.56
2023-02-02T21:13:14.004Z,102095.81
2023-02-02T21:15:40.532Z,102095.75
2023-02-02T21:18:07.056Z,102091.69
2023-02-02T21:20:33.749Z,102099.94
2023-02-02T21:23:00.621Z,102100.69
2023-02-02T21:25:28.446Z,102114.09
2023-02-02T21:27:55.082Z,102110.66
2023-02-02T21:30:21.591Z,102116.88
2023-02-02T21:32:48.204Z,102120.53
2023-02-02T21:35:15.243Z,102131.34
2023-02-02T21:37:41.795Z,102131.34
2023-02-02T21:40:14.059Z,102138.41
2023-02-02T21:42:47.895Z,102134.13
2023-02-02T21:45:27.661Z,102138.63
2023-02-02T21:47:57.174Z,102137.84
2023-02-02T21:50:28.324Z,102136.88
2023-02-02T21:53:13.088Z,102138.69
2023-02-02T21:55:40.060Z,102138.00
2023-02-02T21:58:19.024Z,102137.84
2023-02-02T22:00:46.372Z,102143.31
2023-02-02T22:03:25.934Z,102154.19
2023-02-02T22:05:53.487Z,102164.06
2023-02-02T22:08:23.883Z,102161.47
2023-02-02T22:10:50.833Z,102165.78
2023-02-02T22:13:20.620Z,102156.09
2023-02-02T22:15:49.434Z,102162.31
2023-02-02T22:18:17.999Z,102145.38
2023-02-02T22:20:45.686Z,102149.00
2023-02-02T22:23:15.544Z,102158.88
2023-02-02T22:25:44.613Z,102150.72
2023-02-02T22:28:19.912Z,102156.19
2023-02-02T22:30:46.969Z,102152.69
2023-02-02T22:33:13.988Z,102143.69
2023-02-02T22:35:41.328Z,102146.34
2023-02-02T22:38:08.687Z,102150.00
2023-02-02T22:40:35.269Z,102153.66
2023-02-02T22:43:04.442Z,102154.50
2023-02-02T22:45:32.581Z,102160.44
2023-02-02T22:47:59.165Z,102157.97
2023-02-02T22:50:28.161Z,102163.41
2023-02-02T22:52:55.247Z,102173.28
2023-02-02T22:55:22.331Z,102171.63
2023-02-02T22:57:49.270Z,102166.44
2023-02-02T23:00:18.517Z,102157.47
2023-02-02T23:02:46.387Z,102158.38
2023-02-02T23:05:15.368Z,102153.13
2023-02-02T23:07:42.604Z,102171.72
2023-02-02T23:10:10.509Z,102163.69
2023-02-02T23:12:37.228Z,102170.88
2023-02-02T23:15:04.021Z,102170.00
2023-02-02T23:17:30.732Z,102175.44
2023-02-02T23:19:58.744Z,102169.22
2023-02-02T23:22:25.573Z,102177.16
2023-02-02T23:24:52.293Z,102181.59
2023-02-02T23:27:18.988Z,102180.81
2023-02-02T23:29:45.678Z,102177.44
2023-02-02T23:32:12.473Z,102170.19
2023-02-02T23:34:39.175Z,102178.13
2023-02-02T23:37:07.223Z,102174.59
2023-02-02T23:39:33.859Z,102172.06
2023-02-02T23:42:00.352Z,102179.09
2023-02-02T23:44:27.003Z,102188.94
2023-02-02T23:46:54.574Z,102187.19
2023-02-02T23:49:21.456Z,102189.13
2023-02-02T23:51:48.302Z,102191.81
2023-02-02T23:54:16.357Z,102203.44
2023-02-02T23:56:43.073Z,102191.81
2023-02-02T23:59:09.649Z,102185.66
